KCOT/COT METAR and TAF weather

Enter ICAO airport designator
Station Type Date Time Source
KCOT METAR 2020/07/12 18:53 UTC NOAA

KCOT 121853Z AUTO 17007KT 10SM CLR 38/22 A2991 RMK AO2 SLP119 T03780217


Station Type Date Time Source
KCOT Decoded METAR 2020/07/12 18:53 UTC NOAA

COTULLA-LASALLE COUNTY AIRPORT , TX, United States (KCOT) 28-27N 099-13W 140M
Jul 12, 2020 - 02:53 PM EDT / 2020.07.12 1853 UTC
Wind: from the S (170 degrees) at 8 MPH (7 KT):0
Visibility: 10 mile(s):0
Sky conditions: clear
Temperature: 100.0 F (37.8 C)
Heat index: 108.5 F (42.5 C):1
Dew Point: 71.1 F (21.7 C)
Relative Humidity: 39%
Pressure (altimeter): 29.91 in. Hg (1012 hPa)
ob: KCOT 121853Z AUTO 17007KT 10SM CLR 38/22 A2991 RMK AO2 SLP119 T03780217
cycle: 19

Station Type Date Time Source
KCOT TAF 2020/07/12 18:42 UTC NOAA

TAF KCOT 121739Z 1218/1318 VRB04KT P6SM SCT250
FM130000 13015G20KT P6SM SKC
FM130600 15008KT P6SM SKC

Example: see airport list